Time;durP1;ratioP1;P1;durP2;ratioP2;P2;SDS_P1;SDS_P2;PMS_P1;PMS_P2;Temp;Humidity;BMP_temperature;BMP_pressure;BME280_temperature;BME280_humidity;BME280_pressure;Samples;Min_cycle;Max_cycle;Signal;HPM_P1;HPM_P2
2024/04/01 00:01:17;;;;;;;5.13;4.93;;;;;;;;;;4778093;29;20216;-83
2024/04/01 00:03:43;;;;;;;5.10;4.90;;;;;;;;;;4769415;30;21059;-85
2024/04/01 00:06:09;;;;;;;5.53;5.23;;;;;;;;;;4740891;30;20422;-84
2024/04/01 00:08:35;;;;;;;5.20;4.90;;;;;;;;;;4750918;30;20912;-83
2024/04/01 00:11:01;;;;;;;5.57;5.27;;;;;;;;;;4817334;29;20297;-83
2024/04/01 00:13:27;;;;;;;5.80;5.50;;;;;;;;;;4733200;30;20428;-84
2024/04/01 00:15:53;;;;;;;5.10;4.90;;;;;;;;;;4758177;30;20438;-85
2024/04/01 00:18:19;;;;;;;5.10;4.90;;;;;;;;;;4822009;29;20502;-83
2024/04/01 00:20:54;;;;;;;5.57;5.27;;;;;;;;;;4813483;29;20416;-83
2024/04/01 00:23:20;;;;;;;5.53;5.10;;;;;;;;;;4787314;29;20451;-84
2024/04/01 00:25:46;;;;;;;6.07;5.57;;;;;;;;;;4818550;29;20696;-82
2024/04/01 00:28:12;;;;;;;5.93;5.40;;;;;;;;;;4781501;29;20429;-82
2024/04/01 00:30:38;;;;;;;5.63;5.40;;;;;;;;;;4797122;29;20262;-84
2024/04/01 00:33:04;;;;;;;6.37;6.07;;;;;;;;;;4701397;30;20544;-84
2024/04/01 00:35:30;;;;;;;6.00;5.70;;;;;;;;;;4729195;30;20432;-84
2024/04/01 00:37:56;;;;;;;5.57;5.37;;;;;;;;;;4735933;30;20196;-85
2024/04/01 00:40:22;;;;;;;5.70;5.40;;;;;;;;;;4754196;30;20540;-85
2024/04/01 00:42:48;;;;;;;5.80;5.50;;;;;;;;;;4739315;30;20252;-84
2024/04/01 00:45:14;;;;;;;5.90;5.60;;;;;;;;;;4752895;30;20462;-84
2024/04/01 00:47:41;;;;;;;6.20;5.82;;;;;;;;;;4725931;30;20859;-84
2024/04/01 00:50:07;;;;;;;5.60;5.40;;;;;;;;;;4728878;29;20233;-84
2024/04/01 00:52:33;;;;;;;5.88;5.57;;;;;;;;;;4745260;30;20204;-85
2024/04/01 00:54:59;;;;;;;6.10;5.80;;;;;;;;;;4790243;29;20574;-84
2024/04/01 00:57:26;;;;;;;5.68;5.30;;;;;;;;;;4776981;29;20571;-85
2024/04/01 00:59:52;;;;;;;5.97;5.40;;;;;;;;;;4771861;30;20318;-85
2024/04/01 01:02:18;;;;;;;5.60;5.40;;;;;;;;;;4759664;29;20196;-85
2024/04/01 01:04:45;;;;;;;6.32;5.95;;;;;;;;;;4781807;29;20675;-84
2024/04/01 01:07:11;;;;;;;5.88;5.57;;;;;;;;;;4776015;29;20195;-84
2024/04/01 01:09:39;;;;;;;5.70;5.40;;;;;;;;;;4785410;30;20712;-85
2024/04/01 01:12:05;;;;;;;5.80;5.50;;;;;;;;;;4804059;29;20335;-84
2024/04/01 01:14:31;;;;;;;5.30;5.10;;;;;;;;;;4779520;29;20529;-85
2024/04/01 01:16:57;;;;;;;5.50;5.30;;;;;;;;;;4768416;29;20249;-84
2024/04/01 01:19:24;;;;;;;5.40;5.20;;;;;;;;;;4767675;30;20461;-84
2024/04/01 01:21:50;;;;;;;5.50;5.20;;;;;;;;;;4770996;30;20540;-84
2024/04/01 01:24:16;;;;;;;5.47;5.20;;;;;;;;;;4754407;30;20302;-84
2024/04/01 01:26:45;;;;;;;5.40;5.10;;;;;;;;;;4754178;30;20415;-84
2024/04/01 01:29:11;;;;;;;6.07;5.45;;;;;;;;;;4731883;30;20281;-84
2024/04/01 01:31:39;;;;;;;5.70;5.50;;;;;;;;;;4731519;30;20312;-83
2024/04/01 01:34:05;;;;;;;5.72;5.53;;;;;;;;;;4762471;30;20593;-85
2024/04/01 01:36:31;;;;;;;5.50;5.30;;;;;;;;;;4795970;29;20250;-84
2024/04/01 01:38:57;;;;;;;5.47;5.20;;;;;;;;;;4758882;30;20216;-85
2024/04/01 01:41:23;;;;;;;5.80;5.60;;;;;;;;;;4770202;30;20203;-83
2024/04/01 01:43:49;;;;;;;5.80;5.37;;;;;;;;;;4770332;30;20417;-83
2024/04/01 01:46:15;;;;;;;5.40;5.20;;;;;;;;;;4752539;30;20487;-84
2024/04/01 01:48:41;;;;;;;5.87;5.37;;;;;;;;;;4738976;30;20485;-84
2024/04/01 01:51:07;;;;;;;5.50;5.30;;;;;;;;;;4716441;30;20503;-84
2024/04/01 01:53:33;;;;;;;5.30;5.10;;;;;;;;;;4770813;30;20483;-85
2024/04/01 01:55:59;;;;;;;5.80;5.60;;;;;;;;;;4721439;30;20421;-85
2024/04/01 01:58:25;;;;;;;5.50;5.30;;;;;;;;;;4752049;30;20196;-83
2024/04/01 02:00:51;;;;;;;5.30;5.10;;;;;;;;;;4772807;29;20436;-82
2024/04/01 02:03:17;;;;;;;5.60;5.30;;;;;;;;;;4806787;29;20766;-83
2024/04/01 02:05:43;;;;;;;5.80;5.50;;;;;;;;;;4823867;29;20605;-84
2024/04/01 02:08:09;;;;;;;5.75;5.45;;;;;;;;;;4774605;30;20426;-84
2024/04/01 02:10:38;;;;;;;5.70;5.40;;;;;;;;;;4753137;30;20286;-86
2024/04/01 02:13:05;;;;;;;5.60;5.30;;;;;;;;;;4742796;30;20225;-82
2024/04/01 02:15:31;;;;;;;5.47;5.28;;;;;;;;;;4739646;30;20197;-83
2024/04/01 02:17:57;;;;;;;5.45;5.20;;;;;;;;;;4775586;29;20205;-84
2024/04/01 02:20:23;;;;;;;5.63;5.32;;;;;;;;;;4791797;29;20193;-83
2024/04/01 02:22:49;;;;;;;5.70;5.50;;;;;;;;;;4827948;29;20289;-84
2024/04/01 02:25:17;;;;;;;5.70;5.40;;;;;;;;;;4786907;29;20709;-84
2024/04/01 02:27:43;;;;;;;5.65;5.45;;;;;;;;;;4777940;29;20789;-84
2024/04/01 02:30:09;;;;;;;5.60;5.35;;;;;;;;;;4769784;30;20231;-84
2024/04/01 02:32:35;;;;;;;5.85;5.40;;;;;;;;;;4800230;29;20206;-83
2024/04/01 02:35:02;;;;;;;5.70;5.40;;;;;;;;;;4807538;29;20206;-84
2024/04/01 02:37:28;;;;;;;5.45;5.20;;;;;;;;;;4777670;29;20417;-83
2024/04/01 02:39:54;;;;;;;6.07;5.67;;;;;;;;;;4773899;29;21280;-85
2024/04/01 02:42:20;;;;;;;5.60;5.20;;;;;;;;;;4782499;30;20468;-85
2024/04/01 02:44:46;;;;;;;6.80;6.30;;;;;;;;;;4710828;29;20437;-84
2024/04/01 02:47:12;;;;;;;5.85;5.57;;;;;;;;;;4756651;30;20423;-84
2024/04/01 02:49:38;;;;;;;5.53;5.33;;;;;;;;;;4750714;30;20741;-84
2024/04/01 02:52:04;;;;;;;5.50;5.30;;;;;;;;;;4787397;29;20505;-82
2024/04/01 02:54:30;;;;;;;5.78;5.38;;;;;;;;;;4764499;29;20429;-84
2024/04/01 02:56:56;;;;;;;5.60;5.30;;;;;;;;;;4772987;30;20578;-83
2024/04/01 02:59:22;;;;;;;5.68;5.28;;;;;;;;;;4769820;30;20429;-83
2024/04/01 03:01:48;;;;;;;5.88;5.47;;;;;;;;;;4761940;30;20200;-84
2024/04/01 03:04:16;;;;;;;5.30;5.10;;;;;;;;;;4738982;30;20211;-84
2024/04/01 03:06:42;;;;;;;5.40;5.20;;;;;;;;;;4730453;30;20550;-84
2024/04/01 03:09:08;;;;;;;6.35;5.75;;;;;;;;;;4764491;30;20556;-83
2024/04/01 03:11:34;;;;;;;5.90;5.50;;;;;;;;;;4752021;30;20330;-84
2024/04/01 03:14:00;;;;;;;5.80;5.50;;;;;;;;;;4748477;30;20427;-84
2024/04/01 03:16:26;;;;;;;5.67;5.40;;;;;;;;;;4756484;30;20526;-84
2024/04/01 03:18:51;;;;;;;5.70;5.40;;;;;;;;;;4760738;30;20765;-84
2024/04/01 03:21:18;;;;;;;5.70;5.50;;;;;;;;;;4791798;29;20205;-84
2024/04/01 03:23:44;;;;;;;5.82;5.53;;;;;;;;;;4778365;29;20453;-83
2024/04/01 03:26:10;;;;;;;5.60;5.40;;;;;;;;;;4760820;30;20210;-84
2024/04/01 03:28:36;;;;;;;5.90;5.50;;;;;;;;;;4800626;29;20431;-84
2024/04/01 03:31:05;;;;;;;5.78;5.47;;;;;;;;;;4823211;29;21014;-84
2024/04/01 03:33:32;;;;;;;5.90;5.50;;;;;;;;;;4795417;29;20234;-84
2024/04/01 03:35:58;;;;;;;5.90;5.60;;;;;;;;;;4809435;29;20228;-84
2024/04/01 03:38:24;;;;;;;5.80;5.60;;;;;;;;;;4773441;30;20716;-84
2024/04/01 03:40:51;;;;;;;5.70;5.50;;;;;;;;;;4755330;30;20446;-84
2024/04/01 03:43:19;;;;;;;5.85;5.60;;;;;;;;;;4746932;30;20251;-85
2024/04/01 03:45:45;;;;;;;5.82;5.53;;;;;;;;;;4733441;30;20269;-85
2024/04/01 03:48:11;;;;;;;5.80;5.60;;;;;;;;;;4720018;30;20209;-84
2024/04/01 03:50:43;;;;;;;6.10;5.70;;;;;;;;;;4718047;30;20500;-84
2024/04/01 03:53:09;;;;;;;6.38;5.88;;;;;;;;;;4704858;30;20460;-84
2024/04/01 03:55:35;;;;;;;5.50;5.30;;;;;;;;;;4705379;30;20194;-84
2024/04/01 03:58:01;;;;;;;5.80;5.50;;;;;;;;;;4701946;30;20262;-84
2024/04/01 04:00:27;;;;;;;5.50;5.30;;;;;;;;;;4750906;30;20203;-85
2024/04/01 04:02:53;;;;;;;5.70;5.40;;;;;;;;;;4704623;30;20457;-84
2024/04/01 04:05:20;;;;;;;5.65;5.35;;;;;;;;;;4719784;30;20822;-84
2024/04/01 04:07:46;;;;;;;5.53;5.30;;;;;;;;;;4705562;30;20206;-84
2024/04/01 04:10:12;;;;;;;5.97;5.47;;;;;;;;;;4719164;30;20237;-84
2024/04/01 04:12:38;;;;;;;5.80;5.40;;;;;;;;;;4729991;30;20283;-84
2024/04/01 04:15:04;;;;;;;5.80;5.50;;;;;;;;;;4737073;30;20419;-84
2024/04/01 04:17:31;;;;;;;5.53;5.32;;;;;;;;;;4723109;30;20230;-85
2024/04/01 04:19:57;;;;;;;6.03;5.70;;;;;;;;;;4719231;30;20233;-85
2024/04/01 04:22:23;;;;;;;5.60;5.30;;;;;;;;;;4750855;30;20283;-84
2024/04/01 04:24:49;;;;;;;6.17;5.83;;;;;;;;;;4746632;30;20198;-84
2024/04/01 04:27:15;;;;;;;6.03;5.73;;;;;;;;;;4748629;30;20505;-84
2024/04/01 04:29:41;;;;;;;5.90;5.50;;;;;;;;;;4711701;30;20432;-85
2024/04/01 04:32:10;;;;;;;5.82;5.50;;;;;;;;;;4694343;30;20789;-85
2024/04/01 04:34:36;;;;;;;6.65;6.35;;;;;;;;;;4675873;30;20373;-84
2024/04/01 04:37:05;;;;;;;5.80;5.50;;;;;;;;;;4746890;30;20254;-85
2024/04/01 04:39:31;;;;;;;6.38;5.80;;;;;;;;;;4709370;30;20205;-84
2024/04/01 04:41:57;;;;;;;5.80;5.40;;;;;;;;;;4691771;30;20304;-85
2024/04/01 04:44:23;;;;;;;5.83;5.53;;;;;;;;;;4733176;30;20193;-84
2024/04/01 04:46:49;;;;;;;6.30;5.90;;;;;;;;;;4719420;30;20502;-85
2024/04/01 04:49:17;;;;;;;5.90;5.60;;;;;;;;;;4705378;30;20559;-85
2024/04/01 04:51:43;;;;;;;6.10;5.80;;;;;;;;;;4737644;30;20268;-85
2024/04/01 04:54:09;;;;;;;6.90;6.50;;;;;;;;;;4705353;30;20276;-85
2024/04/01 04:56:35;;;;;;;6.20;5.90;;;;;;;;;;4701342;30;20864;-84
2024/04/01 04:59:02;;;;;;;6.57;6.10;;;;;;;;;;4644401;30;20432;-85
2024/04/01 05:01:27;;;;;;;7.10;6.70;;;;;;;;;;4643550;30;20492;-85
2024/04/01 05:03:54;;;;;;;7.77;7.37;;;;;;;;;;4640591;30;20213;-86
2024/04/01 05:06:20;;;;;;;11.38;7.47;;;;;;;;;;4710923;30;20464;-86
2024/04/01 05:08:45;;;;;;;7.10;6.80;;;;;;;;;;4654352;30;20267;-86
2024/04/01 05:11:12;;;;;;;7.10;6.80;;;;;;;;;;4667747;30;20482;-87
2024/04/01 05:13:38;;;;;;;7.80;7.40;;;;;;;;;;4664372;30;20505;-87
2024/04/01 05:16:05;;;;;;;7.53;7.03;;;;;;;;;;4675453;30;20254;-87
2024/04/01 05:18:31;;;;;;;7.55;7.07;;;;;;;;;;4675346;30;20633;-87
2024/04/01 05:20:57;;;;;;;7.70;7.30;;;;;;;;;;4683797;30;20633;-87
2024/04/01 05:23:23;;;;;;;7.70;7.40;;;;;;;;;;4707852;30;20300;-88
2024/04/01 05:25:49;;;;;;;8.00;7.60;;;;;;;;;;4754414;30;20414;-88
2024/04/01 05:28:16;;;;;;;7.90;7.40;;;;;;;;;;4762428;30;20418;-88
2024/04/01 05:30:42;;;;;;;7.45;7.15;;;;;;;;;;4780323;30;20227;-88
2024/04/01 05:33:08;;;;;;;7.70;7.30;;;;;;;;;;4765483;30;20193;-88
2024/04/01 05:35:37;;;;;;;7.70;7.30;;;;;;;;;;4758371;30;20492;-88
2024/04/01 05:38:03;;;;;;;7.68;7.18;;;;;;;;;;4686995;30;20449;-88
2024/04/01 05:40:29;;;;;;;7.95;7.22;;;;;;;;;;4675800;30;20200;-89
2024/04/01 05:42:55;;;;;;;7.47;7.18;;;;;;;;;;4709766;30;20241;-89
2024/04/01 05:45:21;;;;;;;7.53;7.13;;;;;;;;;;4705633;30;20204;-90
2024/04/01 05:47:48;;;;;;;8.88;8.45;;;;;;;;;;4723149;30;20288;-90
2024/04/01 05:50:18;;;;;;;7.50;7.10;;;;;;;;;;4705688;30;20230;-87
2024/04/01 05:52:44;;;;;;;8.32;7.80;;;;;;;;;;4677894;30;20235;-89
2024/04/01 05:55:10;;;;;;;9.05;8.55;;;;;;;;;;4740599;30;20695;-90
2024/04/01 05:57:36;;;;;;;8.75;8.25;;;;;;;;;;4759654;30;20585;-89
2024/04/01 06:00:02;;;;;;;8.70;8.10;;;;;;;;;;4745928;30;20243;-90
2024/04/01 06:02:28;;;;;;;8.85;8.25;;;;;;;;;;4771559;30;20516;-89
2024/04/01 06:04:54;;;;;;;8.30;7.80;;;;;;;;;;4774944;30;20201;-89
2024/04/01 06:07:20;;;;;;;8.20;7.80;;;;;;;;;;4740744;30;20655;-90
2024/04/01 06:09:46;;;;;;;8.17;7.67;;;;;;;;;;4757753;30;20446;-87
2024/04/01 06:12:12;;;;;;;8.97;8.37;;;;;;;;;;4767790;29;20438;-89
2024/04/01 06:14:38;;;;;;;7.90;7.50;;;;;;;;;;4745589;30;20466;-91
2024/04/01 06:17:05;;;;;;;8.13;7.72;;;;;;;;;;4758752;30;20327;-92
2024/04/01 06:19:33;;;;;;;9.02;8.52;;;;;;;;;;4776137;29;20611;-92
2024/04/01 06:22:09;;;;;;;9.82;9.43;;;;;;;;;;4770678;29;20211;-94
2024/04/01 07:24:01;;;;;;;;;;;;;;;;;;;;;
2024/04/01 07:27:36;;;;;;;;;;;;;;;;;;;;;
2024/04/01 07:29:50;;;;;;;10.10;9.60;;;;;;;;;;4839093;29;20184;-89
2024/04/01 07:33:05;;;;;;;;;;;;;;;;;;;;;
2024/04/01 07:39:01;;;;;;;9.82;9.32;;;;;;;;;;4806305;29;20194;-89
2024/04/01 07:41:30;;;;;;;10.50;9.90;;;;;;;;;;4810973;29;20201;-89
2024/04/01 07:43:56;;;;;;;10.70;10.10;;;;;;;;;;4805829;29;20217;-88
2024/04/01 07:46:22;;;;;;;10.30;9.70;;;;;;;;;;4805969;29;20198;-90
2024/04/01 07:48:48;;;;;;;10.73;10.05;;;;;;;;;;4787417;29;20508;-86
2024/04/01 07:51:14;;;;;;;10.40;9.90;;;;;;;;;;4769151;30;20240;-86
2024/04/01 07:53:40;;;;;;;10.80;10.20;;;;;;;;;;4769004;30;20429;-86
2024/04/01 07:56:06;;;;;;;10.52;9.82;;;;;;;;;;4769047;30;20200;-86
2024/04/01 07:58:32;;;;;;;10.93;10.25;;;;;;;;;;4769241;30;20210;-86
2024/04/01 08:00:59;;;;;;;10.82;9.80;;;;;;;;;;4787336;29;20251;-86
2024/04/01 08:03:25;;;;;;;11.60;10.95;;;;;;;;;;4768986;30;20200;-86
2024/04/01 08:05:51;;;;;;;11.38;10.77;;;;;;;;;;4751571;30;20185;-86
2024/04/01 08:08:20;;;;;;;11.47;10.67;;;;;;;;;;4761555;30;20200;-87
2024/04/01 08:10:49;;;;;;;11.88;11.07;;;;;;;;;;4768783;30;20481;-88
2024/04/01 08:13:15;;;;;;;13.18;12.38;;;;;;;;;;4754423;30;20211;-88
2024/04/01 08:15:41;;;;;;;12.90;12.20;;;;;;;;;;4750619;30;20184;-86
2024/04/01 08:18:07;;;;;;;12.70;11.80;;;;;;;;;;4768504;30;20455;-86
2024/04/01 08:20:34;;;;;;;14.70;13.60;;;;;;;;;;4761345;30;20196;-86
2024/04/01 08:23:00;;;;;;;13.75;12.95;;;;;;;;;;4739789;30;20490;-86
2024/04/01 08:25:26;;;;;;;15.52;14.50;;;;;;;;;;4750502;30;20207;-86
2024/04/01 08:27:54;;;;;;;15.80;14.60;;;;;;;;;;4722943;30;20197;-87
2024/04/01 08:30:20;;;;;;;15.13;14.13;;;;;;;;;;4733506;30;21044;-86
2024/04/01 08:32:46;;;;;;;16.50;15.50;;;;;;;;;;4733233;30;20291;-86
2024/04/01 08:35:12;;;;;;;16.73;15.23;;;;;;;;;;4717566;30;20433;-85
2024/04/01 08:37:38;;;;;;;16.60;15.50;;;;;;;;;;4698335;30;20421;-85
2024/04/01 08:40:04;;;;;;;16.58;15.35;;;;;;;;;;4670892;30;20207;-86
2024/04/01 08:42:30;;;;;;;15.40;14.40;;;;;;;;;;4654454;30;20209;-86
2024/04/01 08:54:44;;;;;;;14.10;13.20;;;;;;;;;;4587328;31;20234;-92
2024/04/01 08:57:12;;;;;;;14.35;13.27;;;;;;;;;;4631623;30;20655;-90
2024/04/01 08:59:42;;;;;;;14.43;13.43;;;;;;;;;;4645346;30;20374;-91
2024/04/01 09:02:08;;;;;;;14.90;13.60;;;;;;;;;;4651681;30;20232;-91
2024/04/01 09:04:43;;;;;;;15.50;14.30;;;;;;;;;;4686475;30;20708;-93
2024/04/01 09:07:14;;;;;;;15.05;13.95;;;;;;;;;;4654618;30;20199;-91
2024/04/01 09:09:40;;;;;;;14.55;13.55;;;;;;;;;;4683698;30;20207;-89
2024/04/01 09:12:07;;;;;;;14.93;13.73;;;;;;;;;;4684833;30;20242;-83
2024/04/01 09:14:33;;;;;;;16.02;14.88;;;;;;;;;;4635990;30;20679;-82
2024/04/01 09:17:01;;;;;;;16.23;14.82;;;;;;;;;;4662681;30;20205;-83
2024/04/01 09:19:27;;;;;;;15.60;14.25;;;;;;;;;;4650395;30;20208;-85
2024/04/01 09:21:53;;;;;;;15.60;14.45;;;;;;;;;;4650495;30;20258;-87
2024/04/01 09:24:20;;;;;;;15.95;14.80;;;;;;;;;;4632062;30;20716;-85
2024/04/01 09:26:48;;;;;;;16.42;15.20;;;;;;;;;;4649921;30;20204;-87
2024/04/01 09:29:14;;;;;;;15.50;14.50;;;;;;;;;;4667207;30;20196;-87
2024/04/01 09:31:40;;;;;;;16.63;15.30;;;;;;;;;;4683683;30;20273;-85
2024/04/01 09:34:06;;;;;;;17.25;15.88;;;;;;;;;;4686283;30;20426;-87
2024/04/01 09:36:33;;;;;;;17.98;16.50;;;;;;;;;;4651836;30;20208;-84
2024/04/01 09:38:59;;;;;;;15.90;14.45;;;;;;;;;;4667318;30;20642;-84
2024/04/01 09:41:25;;;;;;;17.60;16.20;;;;;;;;;;4640255;30;20205;-87
2024/04/01 09:43:58;;;;;;;16.20;14.97;;;;;;;;;;4675095;30;20589;-85
2024/04/01 09:46:24;;;;;;;17.10;15.77;;;;;;;;;;4683831;30;20445;-87
2024/04/01 09:48:51;;;;;;;16.25;14.95;;;;;;;;;;4700932;30;20195;-86
2024/04/01 09:51:18;;;;;;;16.90;15.45;;;;;;;;;;4683859;30;20269;-87
2024/04/01 09:53:45;;;;;;;17.23;15.77;;;;;;;;;;4683475;30;20219;-85
2024/04/01 09:56:30;;;;;;;18.58;17.20;;;;;;;;;;4641097;30;20209;-87
2024/04/01 09:59:19;;;;;;;18.10;16.80;;;;;;;;;;4666771;30;20200;-88
2024/04/01 10:02:01;;;;;;;18.35;17.05;;;;;;;;;;4672350;30;20327;-86
2024/04/01 10:04:39;;;;;;;15.70;14.57;;;;;;;;;;4683802;30;20297;-87
2024/04/01 10:07:23;;;;;;;16.42;14.98;;;;;;;;;;4683770;30;20282;-87
2024/04/01 10:10:08;;;;;;;16.17;14.90;;;;;;;;;;4690382;30;20214;-84
2024/04/01 10:12:50;;;;;;;14.80;13.70;;;;;;;;;;4665840;30;20197;-84
2024/04/01 10:15:40;;;;;;;14.25;13.15;;;;;;;;;;4628533;30;20705;-84
2024/04/01 10:18:35;;;;;;;13.13;12.23;;;;;;;;;;4645809;30;20200;-83
2024/04/01 10:21:04;;;;;;;11.68;10.75;;;;;;;;;;4633070;30;20590;-84
2024/04/01 10:23:30;;;;;;;13.07;12.18;;;;;;;;;;4632114;30;20245;-84
2024/04/01 10:26:16;;;;;;;13.20;12.30;;;;;;;;;;4655594;30;20201;-85
2024/04/01 10:29:10;;;;;;;12.65;11.65;;;;;;;;;;4718362;30;20190;-85
2024/04/01 10:31:45;;;;;;;11.43;10.50;;;;;;;;;;4701768;30;20222;-86
2024/04/01 10:34:23;;;;;;;14.15;12.95;;;;;;;;;;4700648;30;20215;-86
2024/04/01 10:36:58;;;;;;;12.25;11.20;;;;;;;;;;4683379;30;20341;-85
2024/04/01 10:39:24;;;;;;;12.30;11.23;;;;;;;;;;4683005;30;20676;-87
2024/04/01 10:41:59;;;;;;;11.57;10.68;;;;;;;;;;4680835;30;20281;-86
2024/04/01 10:44:28;;;;;;;12.05;10.88;;;;;;;;;;4683340;30;20202;-86
2024/04/01 10:47:13;;;;;;;12.20;11.30;;;;;;;;;;4682949;30;20559;-85
2024/04/01 10:49:57;;;;;;;11.45;10.60;;;;;;;;;;4679143;30;20214;-87
2024/04/01 10:52:30;;;;;;;13.15;12.15;;;;;;;;;;4682180;30;20214;-88
2024/04/01 10:55:01;;;;;;;12.13;11.02;;;;;;;;;;4699518;30;20201;-87
2024/04/01 10:57:27;;;;;;;11.02;10.32;;;;;;;;;;4693514;30;20249;-88
2024/04/01 10:59:59;;;;;;;11.13;10.43;;;;;;;;;;4673041;30;20203;-86
2024/04/01 11:02:39;;;;;;;10.60;9.90;;;;;;;;;;4665513;30;20443;-87
2024/04/01 11:05:23;;;;;;;11.07;10.25;;;;;;;;;;4657784;30;20239;-87
2024/04/01 11:07:55;;;;;;;11.82;10.82;;;;;;;;;;4648452;30;20196;-88
2024/04/01 11:10:28;;;;;;;10.07;9.30;;;;;;;;;;4647538;30;20232;-87
2024/04/01 11:13:03;;;;;;;9.98;9.13;;;;;;;;;;4648019;30;20647;-89
2024/04/01 11:15:29;;;;;;;9.90;9.40;;;;;;;;;;4639837;30;20208;-87
2024/04/01 11:18:02;;;;;;;9.65;8.90;;;;;;;;;;4615748;31;20198;-87
2024/04/01 11:20:35;;;;;;;9.63;8.80;;;;;;;;;;4650381;30;20560;-89
2024/04/01 11:23:13;;;;;;;10.18;8.45;;;;;;;;;;4659816;30;20251;-88
2024/04/01 11:25:54;;;;;;;8.93;8.43;;;;;;;;;;4664364;30;20196;-88
2024/04/01 11:28:39;;;;;;;9.50;8.90;;;;;;;;;;4653442;30;20200;-86
2024/04/01 11:31:10;;;;;;;10.55;9.55;;;;;;;;;;4639635;30;20241;-86
2024/04/01 11:33:55;;;;;;;11.40;9.10;;;;;;;;;;4637544;30;20276;-88
2024/04/01 11:36:26;;;;;;;10.25;9.48;;;;;;;;;;4631391;31;20264;-88
2024/04/01 11:39:04;;;;;;;7.68;7.18;;;;;;;;;;4648082;30;20754;-89
2024/04/01 11:41:31;;;;;;;7.30;6.80;;;;;;;;;;4647427;30;20259;-84
2024/04/01 11:43:58;;;;;;;6.97;6.68;;;;;;;;;;4648437;30;20188;-91
2024/04/01 11:46:24;;;;;;;7.55;7.05;;;;;;;;;;4630892;31;20217;-85
2024/04/01 11:48:56;;;;;;;8.13;7.60;;;;;;;;;;4605747;31;20246;-88
2024/04/01 11:51:32;;;;;;;7.25;6.75;;;;;;;;;;4612462;31;20285;-84
2024/04/01 11:53:58;;;;;;;8.43;6.30;;;;;;;;;;4637840;30;20214;-86
2024/04/01 11:56:39;;;;;;;6.80;6.30;;;;;;;;;;4681858;30;20206;-82
2024/04/01 11:59:06;;;;;;;6.95;6.50;;;;;;;;;;4682371;30;20217;-81
2024/04/01 12:01:34;;;;;;;7.25;6.65;;;;;;;;;;4682201;30;20632;-81
2024/04/01 12:04:01;;;;;;;7.80;7.20;;;;;;;;;;4690739;30;20254;-82
2024/04/01 12:06:29;;;;;;;8.10;7.60;;;;;;;;;;4637050;30;20263;-82
2024/04/01 12:08:56;;;;;;;7.47;6.97;;;;;;;;;;4648992;30;20564;-82
2024/04/01 12:11:22;;;;;;;7.20;6.60;;;;;;;;;;4665395;30;20721;-84
2024/04/01 12:13:49;;;;;;;8.88;8.05;;;;;;;;;;4648472;30;20211;-81
2024/04/01 12:16:15;;;;;;;8.10;7.60;;;;;;;;;;4643082;30;20200;-81
2024/04/01 12:18:42;;;;;;;7.75;7.28;;;;;;;;;;4613475;31;20233;-79
2024/04/01 12:21:09;;;;;;;7.93;7.32;;;;;;;;;;4597764;31;20297;-80
2024/04/01 12:23:37;;;;;;;7.80;7.40;;;;;;;;;;4598375;31;20306;-81
2024/04/01 12:26:09;;;;;;;7.82;7.35;;;;;;;;;;4552229;31;20204;-80
2024/04/01 12:28:36;;;;;;;8.40;7.90;;;;;;;;;;4534102;31;20204;-80
2024/04/01 12:31:02;;;;;;;7.70;7.25;;;;;;;;;;4577303;31;20321;-80
2024/04/01 12:33:28;;;;;;;8.20;7.70;;;;;;;;;;4550715;31;20642;-79
2024/04/01 12:35:54;;;;;;;7.78;7.38;;;;;;;;;;4564524;31;20231;-80
2024/04/01 12:38:26;;;;;;;7.65;7.00;;;;;;;;;;4540529;31;20201;-80
2024/04/01 12:40:52;;;;;;;13.70;9.70;;;;;;;;;;4507284;31;20372;-79
2024/04/01 12:43:20;;;;;;;10.95;10.05;;;;;;;;;;4528788;31;20201;-79
2024/04/01 12:45:46;;;;;;;11.93;10.77;;;;;;;;;;4533339;31;20249;-80
2024/04/01 12:48:17;;;;;;;7.57;7.10;;;;;;;;;;4517103;31;20205;-79
2024/04/01 12:50:43;;;;;;;8.50;7.80;;;;;;;;;;4563553;31;20230;-79
2024/04/01 12:53:28;;;;;;;10.23;9.27;;;;;;;;;;4594733;31;20222;-80
2024/04/01 12:56:13;;;;;;;6.57;6.22;;;;;;;;;;4630675;31;20240;-79
2024/04/01 12:58:51;;;;;;;6.55;6.25;;;;;;;;;;4680801;30;20210;-79
2024/04/01 13:01:17;;;;;;;7.38;6.93;;;;;;;;;;4681702;30;20210;-79
2024/04/01 13:04:01;;;;;;;7.83;7.20;;;;;;;;;;4650502;30;20616;-79
2024/04/01 13:06:48;;;;;;;6.75;6.35;;;;;;;;;;4677849;30;20794;-79
2024/04/01 13:09:16;;;;;;;7.10;6.60;;;;;;;;;;4671786;30;20238;-79
2024/04/01 13:11:57;;;;;;;7.90;7.40;;;;;;;;;;4647734;30;20743;-79
2024/04/01 13:14:26;;;;;;;7.50;6.97;;;;;;;;;;4648828;30;20204;-80
2024/04/01 13:17:03;;;;;;;6.20;5.90;;;;;;;;;;4638784;30;20564;-79
2024/04/01 13:19:33;;;;;;;7.70;6.07;;;;;;;;;;4664849;30;20265;-78
2024/04/01 13:22:19;;;;;;;7.72;6.45;;;;;;;;;;4654991;30;20243;-79
2024/04/01 13:24:50;;;;;;;6.50;6.20;;;;;;;;;;4633457;30;20276;-79
2024/04/01 13:27:29;;;;;;;6.22;5.93;;;;;;;;;;4625178;31;20201;-79
2024/04/01 13:30:13;;;;;;;8.40;7.70;;;;;;;;;;4604555;31;20265;-79
2024/04/01 13:32:47;;;;;;;5.97;5.57;;;;;;;;;;4630530;30;20472;-79
2024/04/01 13:35:32;;;;;;;5.13;4.82;;;;;;;;;;4650247;30;20450;-79
2024/04/01 13:37:58;;;;;;;5.03;4.83;;;;;;;;;;4610883;31;20202;-79
2024/04/01 13:40:56;;;;;;;6.05;4.70;;;;;;;;;;4601596;31;20450;-79
2024/04/01 13:43:50;;;;;;;4.83;4.63;;;;;;;;;;4578961;31;20206;-80
2024/04/01 13:46:26;;;;;;;7.20;4.77;;;;;;;;;;4586543;31;20435;-78
2024/04/01 13:48:56;;;;;;;5.30;5.00;;;;;;;;;;4601575;31;20494;-79
2024/04/01 13:51:45;;;;;;;5.50;5.20;;;;;;;;;;4617351;31;20237;-79
2024/04/01 13:54:35;;;;;;;5.60;5.30;;;;;;;;;;4597619;31;20206;-79
2024/04/01 13:57:11;;;;;;;5.57;5.17;;;;;;;;;;4633578;31;20251;-80
2024/04/01 13:59:44;;;;;;;5.13;4.93;;;;;;;;;;4650587;30;21030;-79
2024/04/01 14:02:19;;;;;;;5.30;5.00;;;;;;;;;;4618271;30;20441;-80
2024/04/01 14:04:48;;;;;;;5.70;5.40;;;;;;;;;;4650466;30;20207;-79
2024/04/01 14:07:16;;;;;;;5.80;5.40;;;;;;;;;;4635695;30;20450;-79
2024/04/01 14:10:02;;;;;;;5.60;5.30;;;;;;;;;;4649103;30;20431;-79
2024/04/01 14:12:34;;;;;;;6.03;5.73;;;;;;;;;;4646789;30;20459;-79
2024/04/01 14:15:03;;;;;;;5.97;5.67;;;;;;;;;;4650281;30;20443;-79
2024/04/01 14:17:35;;;;;;;5.63;5.23;;;;;;;;;;4666564;30;20435;-79
2024/04/01 14:20:07;;;;;;;5.90;5.50;;;;;;;;;;4686429;30;20432;-79
2024/04/01 14:22:33;;;;;;;5.20;4.77;;;;;;;;;;4709127;30;20499;-78
2024/04/01 14:25:03;;;;;;;5.13;4.80;;;;;;;;;;4717968;30;20807;-79
2024/04/01 14:27:29;;;;;;;5.07;4.80;;;;;;;;;;4732048;30;20863;-79
2024/04/01 14:29:55;;;;;;;5.47;5.17;;;;;;;;;;4756579;30;20464;-78
2024/04/01 14:32:22;;;;;;;6.00;5.70;;;;;;;;;;4760402;30;20530;-78
2024/04/01 14:34:48;;;;;;;5.40;5.10;;;;;;;;;;4732949;30;20432;-78
2024/04/01 14:37:14;;;;;;;4.70;4.50;;;;;;;;;;4732960;30;20643;-78
2024/04/01 14:39:42;;;;;;;5.03;4.73;;;;;;;;;;4681094;30;20433;-79
2024/04/01 14:42:08;;;;;;;5.77;5.03;;;;;;;;;;4649945;30;20509;-78
2024/04/01 14:44:35;;;;;;;5.03;4.73;;;;;;;;;;4601044;31;20514;-79
2024/04/01 14:47:01;;;;;;;5.53;5.20;;;;;;;;;;4632805;30;20628;-79
2024/04/01 14:49:29;;;;;;;5.50;5.20;;;;;;;;;;4634318;30;20951;-79
2024/04/01 14:51:55;;;;;;;4.70;4.50;;;;;;;;;;4632329;30;20497;-79
2024/04/01 14:54:21;;;;;;;5.50;5.30;;;;;;;;;;4617160;30;20481;-79
2024/04/01 14:56:47;;;;;;;5.40;5.10;;;;;;;;;;4618142;31;20924;-80
2024/04/01 14:59:13;;;;;;;5.00;4.80;;;;;;;;;;4602272;31;20451;-80
2024/04/01 15:01:39;;;;;;;4.80;4.50;;;;;;;;;;4586917;31;20499;-79
2024/04/01 15:04:08;;;;;;;4.20;3.97;;;;;;;;;;4615460;31;20453;-79
2024/04/01 15:06:35;;;;;;;3.80;3.70;;;;;;;;;;4602570;31;20429;-79
2024/04/01 15:09:09;;;;;;;4.20;3.80;;;;;;;;;;4568207;31;20574;-79
2024/04/01 15:11:40;;;;;;;4.60;4.30;;;;;;;;;;4541384;31;20507;-78
2024/04/01 15:14:06;;;;;;;4.07;3.77;;;;;;;;;;4580337;31;20543;-79
2024/04/01 15:16:35;;;;;;;3.53;3.23;;;;;;;;;;4581557;31;20436;-79
2024/04/01 15:19:02;;;;;;;3.10;3.00;;;;;;;;;;4585709;31;20460;-80
2024/04/01 15:21:28;;;;;;;3.37;3.23;;;;;;;;;;4586047;31;20461;-80
2024/04/01 15:23:54;;;;;;;3.70;3.50;;;;;;;;;;4534423;31;20491;-80
2024/04/01 15:26:20;;;;;;;4.10;3.70;;;;;;;;;;4544211;31;20440;-79
2024/04/01 15:28:46;;;;;;;4.20;3.90;;;;;;;;;;4547593;31;20438;-78
2024/04/01 15:31:17;;;;;;;3.93;3.63;;;;;;;;;;4548676;31;20504;-79
2024/04/01 15:33:43;;;;;;;3.43;3.23;;;;;;;;;;4580536;31;20518;-79
2024/04/01 15:36:10;;;;;;;4.20;2.97;;;;;;;;;;4581361;31;20468;-79
2024/04/01 15:38:36;;;;;;;3.93;3.10;;;;;;;;;;4645003;30;20526;-79
2024/04/01 15:41:02;;;;;;;3.53;3.23;;;;;;;;;;4634763;30;20436;-79
2024/04/01 15:43:28;;;;;;;3.80;3.50;;;;;;;;;;4632236;31;20437;-78
2024/04/01 15:45:55;;;;;;;4.43;4.10;;;;;;;;;;4607921;31;20426;-78
2024/04/01 15:48:21;;;;;;;5.77;5.40;;;;;;;;;;4660530;30;20998;-78
2024/04/01 15:50:48;;;;;;;4.80;4.50;;;;;;;;;;4618522;31;20596;-79
2024/04/01 15:53:15;;;;;;;5.13;4.83;;;;;;;;;;4604575;30;20413;-79
2024/04/01 15:55:44;;;;;;;4.10;3.80;;;;;;;;;;4575022;31;20481;-79
2024/04/01 15:58:11;;;;;;;5.47;3.57;;;;;;;;;;4541237;31;20446;-79
2024/04/01 16:00:44;;;;;;;4.07;3.87;;;;;;;;;;4567193;31;20433;-78
2024/04/01 16:03:10;;;;;;;4.10;3.70;;;;;;;;;;4555148;31;20861;-79
2024/04/01 16:05:36;;;;;;;4.43;4.10;;;;;;;;;;4581507;31;20435;-79